logo
Rechercher aéroport 
image banner adimage banner adimage banner ad
image banner ad

FAWC - Worcester

Situé à Worcester, South Africa

ICAO - FAWC, IATA -

Données fournies par Airmate  

Information générale

Coordonnées: S33°39'60" E19°25'0"
Élévation : 653 feet MSL.
 
Voir autres Aéroports à Western Cape

Données opérationnelles

Special qualification required
Heure actuelle UTC:
Heure actuelle locale:
Météo à : - ( 0 km )
METAR: KTVF 191412Z AUTO 29007KT 10SM BKN016 13/09 A3022 RMK AO2
Voir NOTAMs / SUP AIP / TFR affectant cet aéroport [VIEW]
Fréquences de communication: [VIEW]

Pistes:

Identifiant RWYQFULongueur (ft)Largeur (ft)SurfaceLDA (ft)
15524982UNK
33524982UNK
12328182UNK
30328182UNK

Coordonnées de l'aéroport

Adresse: Worcester South Africa

Vue satellite de FAWC